sensor_id;sensor_type;location;lat;lon;timestamp;P1;durP1;ratioP1;P2;durP2;ratioP2
14292;SDS011;62290;59.420;17.842;2023-07-20T00:01:12;1.02;;;0.40;;
14292;SDS011;62290;59.420;17.842;2023-07-20T00:03:40;0.98;;;0.60;;
14292;SDS011;62290;59.420;17.842;2023-07-20T00:06:08;0.60;;;0.40;;
14292;SDS011;62290;59.420;17.842;2023-07-20T00:08:38;0.80;;;0.47;;
14292;SDS011;62290;59.420;17.842;2023-07-20T00:11:06;0.95;;;0.47;;
14292;SDS011;62290;59.420;17.842;2023-07-20T00:13:34;0.47;;;0.32;;
14292;SDS011;62290;59.420;17.842;2023-07-20T00:16:02;0.45;;;0.38;;
14292;SDS011;62290;59.420;17.842;2023-07-20T00:18:30;0.47;;;0.40;;
14292;SDS011;62290;59.420;17.842;2023-07-20T00:20:58;0.65;;;0.52;;
14292;SDS011;62290;59.420;17.842;2023-07-20T00:23:28;0.30;;;0.30;;
14292;SDS011;62290;59.420;17.842;2023-07-20T00:25:57;0.80;;;0.40;;
14292;SDS011;62290;59.420;17.842;2023-07-20T00:28:25;1.08;;;0.50;;
14292;SDS011;62290;59.420;17.842;2023-07-20T00:30:53;0.40;;;0.40;;
14292;SDS011;62290;59.420;17.842;2023-07-20T00:33:22;0.30;;;0.30;;
14292;SDS011;62290;59.420;17.842;2023-07-20T00:35:50;0.57;;;0.40;;
14292;SDS011;62290;59.420;17.842;2023-07-20T00:38:18;0.70;;;0.40;;
14292;SDS011;62290;59.420;17.842;2023-07-20T00:40:47;0.75;;;0.45;;
14292;SDS011;62290;59.420;17.842;2023-07-20T00:43:18;0.90;;;0.50;;
14292;SDS011;62290;59.420;17.842;2023-07-20T00:45:46;0.40;;;0.40;;
14292;SDS011;62290;59.420;17.842;2023-07-20T00:48:16;1.05;;;0.40;;
14292;SDS011;62290;59.420;17.842;2023-07-20T00:50:44;0.60;;;0.38;;
14292;SDS011;62290;59.420;17.842;2023-07-20T00:53:14;0.55;;;0.47;;
14292;SDS011;62290;59.420;17.842;2023-07-20T00:55:43;0.80;;;0.47;;
14292;SDS011;62290;59.420;17.842;2023-07-20T00:58:11;0.40;;;0.40;;
14292;SDS011;62290;59.420;17.842;2023-07-20T01:00:41;1.52;;;0.55;;
14292;SDS011;62290;59.420;17.842;2023-07-20T01:03:09;1.35;;;0.40;;
14292;SDS011;62290;59.420;17.842;2023-07-20T01:05:40;1.20;;;0.60;;
14292;SDS011;62290;59.420;17.842;2023-07-20T01:08:15;0.45;;;0.30;;
14292;SDS011;62290;59.420;17.842;2023-07-20T01:10:50;0.35;;;0.35;;
14292;SDS011;62290;59.420;17.842;2023-07-20T01:13:21;1.20;;;0.40;;
14292;SDS011;62290;59.420;17.842;2023-07-20T01:15:56;0.50;;;0.30;;
14292;SDS011;62290;59.420;17.842;2023-07-20T01:18:25;0.57;;;0.38;;
14292;SDS011;62290;59.420;17.842;2023-07-20T01:20:53;1.70;;;0.55;;
14292;SDS011;62290;59.420;17.842;2023-07-20T01:23:30;0.35;;;0.30;;
14292;SDS011;62290;59.420;17.842;2023-07-20T01:26:25;2.35;;;0.50;;
14292;SDS011;62290;59.420;17.842;2023-07-20T01:29:11;0.98;;;0.60;;
14292;SDS011;62290;59.420;17.842;2023-07-20T01:31:52;0.88;;;0.40;;
14292;SDS011;62290;59.420;17.842;2023-07-20T01:34:22;0.40;;;0.40;;
14292;SDS011;62290;59.420;17.842;2023-07-20T01:36:52;0.80;;;0.45;;
14292;SDS011;62290;59.420;17.842;2023-07-20T01:39:23;1.00;;;0.40;;
14292;SDS011;62290;59.420;17.842;2023-07-20T01:41:51;1.73;;;0.32;;
14292;SDS011;62290;59.420;17.842;2023-07-20T01:44:20;1.10;;;0.40;;
14292;SDS011;62290;59.420;17.842;2023-07-20T01:46:48;0.45;;;0.40;;
14292;SDS011;62290;59.420;17.842;2023-07-20T01:49:17;1.33;;;0.60;;
14292;SDS011;62290;59.420;17.842;2023-07-20T01:51:45;0.60;;;0.50;;
14292;SDS011;62290;59.420;17.842;2023-07-20T01:54:15;0.98;;;0.50;;
14292;SDS011;62290;59.420;17.842;2023-07-20T01:56:45;1.33;;;0.43;;
14292;SDS011;62290;59.420;17.842;2023-07-20T01:59:13;0.40;;;0.40;;
14292;SDS011;62290;59.420;17.842;2023-07-20T02:01:41;0.75;;;0.40;;
14292;SDS011;62290;59.420;17.842;2023-07-20T02:04:10;0.40;;;0.40;;
14292;SDS011;62290;59.420;17.842;2023-07-20T02:06:40;1.15;;;0.60;;
14292;SDS011;62290;59.420;17.842;2023-07-20T02:09:10;0.40;;;0.40;;
14292;SDS011;62290;59.420;17.842;2023-07-20T02:11:39;2.15;;;0.70;;
14292;SDS011;62290;59.420;17.842;2023-07-20T02:14:07;0.60;;;0.40;;
14292;SDS011;62290;59.420;17.842;2023-07-20T02:16:35;0.85;;;0.43;;
14292;SDS011;62290;59.420;17.842;2023-07-20T02:19:04;1.48;;;0.60;;
14292;SDS011;62290;59.420;17.842;2023-07-20T02:21:33;0.77;;;0.50;;
14292;SDS011;62290;59.420;17.842;2023-07-20T02:24:03;0.80;;;0.50;;
14292;SDS011;62290;59.420;17.842;2023-07-20T02:26:31;0.35;;;0.35;;
14292;SDS011;62290;59.420;17.842;2023-07-20T02:28:59;1.13;;;0.55;;
14292;SDS011;62290;59.420;17.842;2023-07-20T02:31:29;1.10;;;0.50;;
14292;SDS011;62290;59.420;17.842;2023-07-20T02:33:57;0.70;;;0.40;;
14292;SDS011;62290;59.420;17.842;2023-07-20T02:36:26;0.40;;;0.40;;
14292;SDS011;62290;59.420;17.842;2023-07-20T02:38:54;0.95;;;0.40;;
14292;SDS011;62290;59.420;17.842;2023-07-20T02:41:23;0.75;;;0.50;;
14292;SDS011;62290;59.420;17.842;2023-07-20T02:43:51;3.83;;;0.70;;
14292;SDS011;62290;59.420;17.842;2023-07-20T02:46:19;0.82;;;0.47;;
14292;SDS011;62290;59.420;17.842;2023-07-20T02:48:48;1.60;;;0.50;;
14292;SDS011;62290;59.420;17.842;2023-07-20T02:51:16;1.90;;;0.50;;
14292;SDS011;62290;59.420;17.842;2023-07-20T02:53:44;2.38;;;0.50;;
14292;SDS011;62290;59.420;17.842;2023-07-20T02:56:12;0.32;;;0.30;;
14292;SDS011;62290;59.420;17.842;2023-07-20T02:58:42;1.85;;;0.65;;
14292;SDS011;62290;59.420;17.842;2023-07-20T03:01:12;0.93;;;0.50;;
14292;SDS011;62290;59.420;17.842;2023-07-20T03:03:42;0.60;;;0.30;;
14292;SDS011;62290;59.420;17.842;2023-07-20T03:06:13;1.00;;;0.40;;
14292;SDS011;62290;59.420;17.842;2023-07-20T03:08:41;1.23;;;0.57;;
14292;SDS011;62290;59.420;17.842;2023-07-20T03:11:14;0.68;;;0.60;;
14292;SDS011;62290;59.420;17.842;2023-07-20T03:13:44;1.08;;;0.32;;
14292;SDS011;62290;59.420;17.842;2023-07-20T03:16:13;1.42;;;0.52;;
14292;SDS011;62290;59.420;17.842;2023-07-20T03:18:47;1.45;;;0.45;;
14292;SDS011;62290;59.420;17.842;2023-07-20T03:21:15;0.90;;;0.50;;
14292;SDS011;62290;59.420;17.842;2023-07-20T03:23:43;0.60;;;0.60;;
14292;SDS011;62290;59.420;17.842;2023-07-20T03:26:11;0.70;;;0.43;;
14292;SDS011;62290;59.420;17.842;2023-07-20T03:28:40;1.63;;;0.57;;
14292;SDS011;62290;59.420;17.842;2023-07-20T03:31:11;0.68;;;0.50;;
14292;SDS011;62290;59.420;17.842;2023-07-20T03:33:40;1.05;;;0.45;;
14292;SDS011;62290;59.420;17.842;2023-07-20T03:36:09;3.15;;;0.73;;
14292;SDS011;62290;59.420;17.842;2023-07-20T03:38:37;1.27;;;0.70;;
14292;SDS011;62290;59.420;17.842;2023-07-20T03:41:05;0.40;;;0.40;;
14292;SDS011;62290;59.420;17.842;2023-07-20T03:43:33;0.95;;;0.50;;
14292;SDS011;62290;59.420;17.842;2023-07-20T03:46:01;0.57;;;0.40;;
14292;SDS011;62290;59.420;17.842;2023-07-20T03:48:35;0.88;;;0.40;;
14292;SDS011;62290;59.420;17.842;2023-07-20T03:51:03;1.75;;;0.50;;
14292;SDS011;62290;59.420;17.842;2023-07-20T03:53:31;1.52;;;0.60;;
14292;SDS011;62290;59.420;17.842;2023-07-20T03:55:59;0.73;;;0.50;;
14292;SDS011;62290;59.420;17.842;2023-07-20T03:58:27;1.85;;;0.40;;
14292;SDS011;62290;59.420;17.842;2023-07-20T04:00:57;2.08;;;0.60;;
14292;SDS011;62290;59.420;17.842;2023-07-20T04:03:25;1.17;;;0.60;;
14292;SDS011;62290;59.420;17.842;2023-07-20T04:05:55;0.95;;;0.40;;
14292;SDS011;62290;59.420;17.842;2023-07-20T04:08:23;0.80;;;0.40;;
14292;SDS011;62290;59.420;17.842;2023-07-20T04:10:52;1.70;;;0.50;;
14292;SDS011;62290;59.420;17.842;2023-07-20T04:13:20;0.93;;;0.60;;
14292;SDS011;62290;59.420;17.842;2023-07-20T04:15:49;0.80;;;0.50;;
14292;SDS011;62290;59.420;17.842;2023-07-20T04:18:17;0.90;;;0.50;;
14292;SDS011;62290;59.420;17.842;2023-07-20T04:20:45;0.90;;;0.70;;
14292;SDS011;62290;59.420;17.842;2023-07-20T04:23:14;0.70;;;0.43;;
14292;SDS011;62290;59.420;17.842;2023-07-20T04:25:43;0.90;;;0.60;;
14292;SDS011;62290;59.420;17.842;2023-07-20T04:28:12;1.23;;;0.57;;
14292;SDS011;62290;59.420;17.842;2023-07-20T04:30:48;1.42;;;0.70;;
14292;SDS011;62290;59.420;17.842;2023-07-20T04:33:17;1.48;;;0.52;;
14292;SDS011;62290;59.420;17.842;2023-07-20T04:35:47;1.67;;;0.60;;
14292;SDS011;62290;59.420;17.842;2023-07-20T04:38:30;1.23;;;0.63;;
14292;SDS011;62290;59.420;17.842;2023-07-20T04:41:06;2.08;;;0.60;;
14292;SDS011;62290;59.420;17.842;2023-07-20T04:43:40;1.98;;;0.60;;
14292;SDS011;62290;59.420;17.842;2023-07-20T04:46:09;0.82;;;0.60;;
14292;SDS011;62290;59.420;17.842;2023-07-20T04:48:38;0.90;;;0.50;;
14292;SDS011;62290;59.420;17.842;2023-07-20T04:51:07;1.00;;;0.63;;
14292;SDS011;62290;59.420;17.842;2023-07-20T04:53:38;1.20;;;0.57;;
14292;SDS011;62290;59.420;17.842;2023-07-20T04:56:08;0.85;;;0.40;;
14292;SDS011;62290;59.420;17.842;2023-07-20T04:58:37;0.93;;;0.52;;
14292;SDS011;62290;59.420;17.842;2023-07-20T05:01:05;1.80;;;0.55;;
14292;SDS011;62290;59.420;17.842;2023-07-20T05:03:35;1.80;;;0.80;;
14292;SDS011;62290;59.420;17.842;2023-07-20T05:06:03;2.10;;;0.90;;
14292;SDS011;62290;59.420;17.842;2023-07-20T05:08:31;0.90;;;0.60;;
14292;SDS011;62290;59.420;17.842;2023-07-20T05:11:01;1.63;;;0.88;;
14292;SDS011;62290;59.420;17.842;2023-07-20T05:13:30;2.20;;;0.70;;
14292;SDS011;62290;59.420;17.842;2023-07-20T05:15:58;0.90;;;0.60;;
14292;SDS011;62290;59.420;17.842;2023-07-20T05:18:26;1.13;;;0.60;;
14292;SDS011;62290;59.420;17.842;2023-07-20T05:20:54;0.98;;;0.57;;
14292;SDS011;62290;59.420;17.842;2023-07-20T05:23:22;0.65;;;0.55;;
14292;SDS011;62290;59.420;17.842;2023-07-20T05:25:53;0.93;;;0.40;;
14292;SDS011;62290;59.420;17.842;2023-07-20T05:28:23;2.60;;;0.70;;
14292;SDS011;62290;59.420;17.842;2023-07-20T05:30:52;2.00;;;0.75;;
14292;SDS011;62290;59.420;17.842;2023-07-20T05:33:21;1.17;;;0.50;;
14292;SDS011;62290;59.420;17.842;2023-07-20T05:35:49;1.40;;;0.60;;
14292;SDS011;62290;59.420;17.842;2023-07-20T05:38:17;3.15;;;0.70;;
14292;SDS011;62290;59.420;17.842;2023-07-20T05:40:45;1.58;;;0.60;;
14292;SDS011;62290;59.420;17.842;2023-07-20T05:43:13;1.23;;;0.70;;
14292;SDS011;62290;59.420;17.842;2023-07-20T05:45:43;1.15;;;0.70;;
14292;SDS011;62290;59.420;17.842;2023-07-20T05:48:11;1.55;;;0.75;;
14292;SDS011;62290;59.420;17.842;2023-07-20T05:50:41;1.58;;;0.85;;
14292;SDS011;62290;59.420;17.842;2023-07-20T05:53:09;2.08;;;0.85;;
14292;SDS011;62290;59.420;17.842;2023-07-20T05:55:38;1.60;;;0.68;;
14292;SDS011;62290;59.420;17.842;2023-07-20T05:58:06;2.33;;;0.80;;
14292;SDS011;62290;59.420;17.842;2023-07-20T06:00:34;1.27;;;0.70;;
14292;SDS011;62290;59.420;17.842;2023-07-20T06:03:04;0.68;;;0.50;;
14292;SDS011;62290;59.420;17.842;2023-07-20T06:05:32;1.42;;;0.70;;
14292;SDS011;62290;59.420;17.842;2023-07-20T06:08:00;1.75;;;0.75;;
14292;SDS011;62290;59.420;17.842;2023-07-20T06:10:28;2.22;;;0.93;;
14292;SDS011;62290;59.420;17.842;2023-07-20T06:12:56;2.42;;;0.73;;
14292;SDS011;62290;59.420;17.842;2023-07-20T06:15:25;1.20;;;0.70;;
14292;SDS011;62290;59.420;17.842;2023-07-20T06:17:54;1.17;;;0.60;;
14292;SDS011;62290;59.420;17.842;2023-07-20T06:20:26;2.25;;;0.70;;
14292;SDS011;62290;59.420;17.842;2023-07-20T06:22:54;1.52;;;0.80;;
14292;SDS011;62290;59.420;17.842;2023-07-20T06:25:22;1.58;;;0.80;;
14292;SDS011;62290;59.420;17.842;2023-07-20T06:27:50;0.77;;;0.57;;
14292;SDS011;62290;59.420;17.842;2023-07-20T06:30:18;1.73;;;0.80;;
14292;SDS011;62290;59.420;17.842;2023-07-20T06:32:47;2.38;;;1.02;;
14292;SDS011;62290;59.420;17.842;2023-07-20T06:35:15;1.00;;;0.80;;
14292;SDS011;62290;59.420;17.842;2023-07-20T06:37:45;1.17;;;0.65;;
14292;SDS011;62290;59.420;17.842;2023-07-20T06:40:13;1.48;;;0.85;;
14292;SDS011;62290;59.420;17.842;2023-07-20T06:42:44;2.33;;;0.90;;
14292;SDS011;62290;59.420;17.842;2023-07-20T06:45:15;2.38;;;0.80;;
14292;SDS011;62290;59.420;17.842;2023-07-20T06:47:43;1.60;;;0.75;;
14292;SDS011;62290;59.420;17.842;2023-07-20T06:50:12;1.55;;;0.85;;
14292;SDS011;62290;59.420;17.842;2023-07-20T06:52:43;0.73;;;0.60;;
14292;SDS011;62290;59.420;17.842;2023-07-20T06:55:14;1.30;;;0.70;;
14292;SDS011;62290;59.420;17.842;2023-07-20T06:57:49;3.08;;;0.77;;
14292;SDS011;62290;59.420;17.842;2023-07-20T07:00:18;1.67;;;0.85;;
14292;SDS011;62290;59.420;17.842;2023-07-20T07:02:47;1.90;;;0.65;;
14292;SDS011;62290;59.420;17.842;2023-07-20T07:05:16;1.05;;;0.57;;
14292;SDS011;62290;59.420;17.842;2023-07-20T07:07:48;1.65;;;1.02;;
14292;SDS011;62290;59.420;17.842;2023-07-20T07:10:16;2.15;;;0.70;;
14292;SDS011;62290;59.420;17.842;2023-07-20T07:12:44;1.42;;;0.80;;
14292;SDS011;62290;59.420;17.842;2023-07-20T07:15:12;1.17;;;0.73;;
14292;SDS011;62290;59.420;17.842;2023-07-20T07:17:41;0.60;;;0.60;;
14292;SDS011;62290;59.420;17.842;2023-07-20T07:20:10;2.17;;;0.85;;
14292;SDS011;62290;59.420;17.842;2023-07-20T07:22:49;1.20;;;0.80;;
14292;SDS011;62290;59.420;17.842;2023-07-20T07:25:19;0.80;;;0.60;;
14292;SDS011;62290;59.420;17.842;2023-07-20T07:27:49;1.73;;;0.63;;
14292;SDS011;62290;59.420;17.842;2023-07-20T07:30:18;1.48;;;0.82;;
14292;SDS011;62290;59.420;17.842;2023-07-20T07:32:47;1.65;;;0.90;;
14292;SDS011;62290;59.420;17.842;2023-07-20T07:35:15;1.02;;;0.57;;
14292;SDS011;62290;59.420;17.842;2023-07-20T07:37:43;1.98;;;0.88;;
14292;SDS011;62290;59.420;17.842;2023-07-20T07:40:33;2.13;;;0.95;;
14292;SDS011;62290;59.420;17.842;2023-07-20T07:43:01;0.85;;;0.60;;
14292;SDS011;62290;59.420;17.842;2023-07-20T07:45:30;1.45;;;0.73;;
14292;SDS011;62290;59.420;17.842;2023-07-20T07:47:58;2.42;;;0.80;;
14292;SDS011;62290;59.420;17.842;2023-07-20T07:50:26;2.13;;;0.90;;
14292;SDS011;62290;59.420;17.842;2023-07-20T07:52:54;1.70;;;0.85;;
14292;SDS011;62290;59.420;17.842;2023-07-20T07:55:23;1.55;;;0.90;;
14292;SDS011;62290;59.420;17.842;2023-07-20T07:57:54;1.42;;;0.70;;
14292;SDS011;62290;59.420;17.842;2023-07-20T08:00:22;2.00;;;0.65;;
14292;SDS011;62290;59.420;17.842;2023-07-20T08:02:51;0.93;;;0.77;;
14292;SDS011;62290;59.420;17.842;2023-07-20T08:05:19;1.70;;;0.90;;
14292;SDS011;62290;59.420;17.842;2023-07-20T08:07:47;1.45;;;0.85;;
14292;SDS011;62290;59.420;17.842;2023-07-20T08:10:15;2.45;;;0.77;;
14292;SDS011;62290;59.420;17.842;2023-07-20T08:12:43;1.00;;;0.80;;
14292;SDS011;62290;59.420;17.842;2023-07-20T08:15:13;1.95;;;0.80;;
14292;SDS011;62290;59.420;17.842;2023-07-20T08:17:41;1.88;;;0.88;;
14292;SDS011;62290;59.420;17.842;2023-07-20T08:20:12;1.85;;;1.00;;
14292;SDS011;62290;59.420;17.842;2023-07-20T08:22:40;1.65;;;1.00;;
14292;SDS011;62290;59.420;17.842;2023-07-20T08:25:08;0.57;;;0.55;;
14292;SDS011;62290;59.420;17.842;2023-07-20T08:27:37;1.42;;;0.80;;
14292;SDS011;62290;59.420;17.842;2023-07-20T08:30:05;0.98;;;0.80;;
14292;SDS011;62290;59.420;17.842;2023-07-20T08:32:35;2.40;;;1.00;;
14292;SDS011;62290;59.420;17.842;2023-07-20T08:35:04;2.25;;;0.98;;
14292;SDS011;62290;59.420;17.842;2023-07-20T08:37:32;2.00;;;0.70;;
14292;SDS011;62290;59.420;17.842;2023-07-20T08:40:00;1.15;;;0.88;;
14292;SDS011;62290;59.420;17.842;2023-07-20T08:42:32;1.88;;;0.90;;
14292;SDS011;62290;59.420;17.842;2023-07-20T08:45:01;1.88;;;0.82;;
14292;SDS011;62290;59.420;17.842;2023-07-20T08:47:37;1.88;;;0.90;;
14292;SDS011;62290;59.420;17.842;2023-07-20T08:50:06;2.03;;;1.08;;
14292;SDS011;62290;59.420;17.842;2023-07-20T08:52:35;2.35;;;0.90;;
14292;SDS011;62290;59.420;17.842;2023-07-20T08:55:04;1.88;;;0.90;;
14292;SDS011;62290;59.420;17.842;2023-07-20T08:57:33;1.23;;;0.80;;
14292;SDS011;62290;59.420;17.842;2023-07-20T09:00:02;1.80;;;1.00;;
14292;SDS011;62290;59.420;17.842;2023-07-20T09:02:38;1.10;;;0.70;;
14292;SDS011;62290;59.420;17.842;2023-07-20T09:05:08;2.28;;;1.20;;
14292;SDS011;62290;59.420;17.842;2023-07-20T09:07:36;1.20;;;0.90;;
14292;SDS011;62290;59.420;17.842;2023-07-20T09:10:05;2.00;;;1.10;;
14292;SDS011;62290;59.420;17.842;2023-07-20T09:12:34;2.28;;;1.00;;
14292;SDS011;62290;59.420;17.842;2023-07-20T09:15:03;1.92;;;0.70;;
14292;SDS011;62290;59.420;17.842;2023-07-20T09:17:32;1.75;;;1.00;;
14292;SDS011;62290;59.420;17.842;2023-07-20T09:20:02;2.00;;;0.95;;
14292;SDS011;62290;59.420;17.842;2023-07-20T09:22:37;2.97;;;0.80;;
14292;SDS011;62290;59.420;17.842;2023-07-20T09:25:10;1.63;;;0.80;;
14292;SDS011;62290;59.420;17.842;2023-07-20T09:27:40;2.15;;;0.95;;
14292;SDS011;62290;59.420;17.842;2023-07-20T09:30:11;2.08;;;1.13;;
14292;SDS011;62290;59.420;17.842;2023-07-20T09:32:45;1.30;;;0.60;;
14292;SDS011;62290;59.420;17.842;2023-07-20T09:35:19;2.35;;;0.90;;
14292;SDS011;62290;59.420;17.842;2023-07-20T09:37:58;1.70;;;0.77;;
14292;SDS011;62290;59.420;17.842;2023-07-20T09:40:30;1.70;;;0.90;;
14292;SDS011;62290;59.420;17.842;2023-07-20T09:43:08;1.92;;;1.00;;
14292;SDS011;62290;59.420;17.842;2023-07-20T09:45:39;1.60;;;1.00;;
14292;SDS011;62290;59.420;17.842;2023-07-20T09:48:11;3.03;;;0.88;;
14292;SDS011;62290;59.420;17.842;2023-07-20T09:50:49;2.22;;;1.00;;
14292;SDS011;62290;59.420;17.842;2023-07-20T09:53:18;1.17;;;0.80;;
14292;SDS011;62290;59.420;17.842;2023-07-20T09:55:47;1.02;;;0.70;;
14292;SDS011;62290;59.420;17.842;2023-07-20T09:58:16;1.38;;;0.65;;
14292;SDS011;62290;59.420;17.842;2023-07-20T10:00:45;1.10;;;0.80;;
14292;SDS011;62290;59.420;17.842;2023-07-20T10:03:19;1.13;;;0.70;;
14292;SDS011;62290;59.420;17.842;2023-07-20T10:05:51;2.42;;;0.93;;
14292;SDS011;62290;59.420;17.842;2023-07-20T10:08:35;1.23;;;0.73;;
14292;SDS011;62290;59.420;17.842;2023-07-20T10:11:09;1.15;;;0.80;;
14292;SDS011;62290;59.420;17.842;2023-07-20T10:13:39;1.25;;;0.70;;
14292;SDS011;62290;59.420;17.842;2023-07-20T10:16:11;2.10;;;0.88;;
14292;SDS011;62290;59.420;17.842;2023-07-20T10:18:46;2.22;;;1.13;;
14292;SDS011;62290;59.420;17.842;2023-07-20T10:21:20;1.08;;;0.90;;
14292;SDS011;62290;59.420;17.842;2023-07-20T10:23:53;1.25;;;0.70;;
14292;SDS011;62290;59.420;17.842;2023-07-20T10:26:24;1.00;;;0.82;;
14292;SDS011;62290;59.420;17.842;2023-07-20T10:28:53;1.45;;;0.77;;
14292;SDS011;62290;59.420;17.842;2023-07-20T10:31:22;1.88;;;0.73;;
14292;SDS011;62290;59.420;17.842;2023-07-20T10:33:51;1.00;;;0.70;;
14292;SDS011;62290;59.420;17.842;2023-07-20T10:36:25;2.13;;;1.00;;
14292;SDS011;62290;59.420;17.842;2023-07-20T10:38:57;1.27;;;0.90;;
14292;SDS011;62290;59.420;17.842;2023-07-20T10:41:28;1.67;;;0.70;;
14292;SDS011;62290;59.420;17.842;2023-07-20T10:43:58;1.67;;;0.80;;
14292;SDS011;62290;59.420;17.842;2023-07-20T10:46:42;0.68;;;0.60;;
14292;SDS011;62290;59.420;17.842;2023-07-20T10:49:12;1.25;;;0.80;;
14292;SDS011;62290;59.420;17.842;2023-07-20T10:51:43;0.80;;;0.50;;
14292;SDS011;62290;59.420;17.842;2023-07-20T10:59:53;1.52;;;0.80;;
14292;SDS011;62290;59.420;17.842;2023-07-20T11:02:43;0.75;;;0.60;;
14292;SDS011;62290;59.420;17.842;2023-07-20T11:08:11;0.50;;;0.50;;
14292;SDS011;62290;59.420;17.842;2023-07-20T11:10:40;2.65;;;0.65;;
14292;SDS011;62290;59.420;17.842;2023-07-20T11:13:17;0.88;;;0.80;;
14292;SDS011;62290;59.420;17.842;2023-07-20T11:15:48;1.05;;;0.73;;
14292;SDS011;62290;59.420;17.842;2023-07-20T11:18:28;1.98;;;0.73;;
14292;SDS011;62290;59.420;17.842;2023-07-20T11:20:58;1.58;;;0.77;;
14292;SDS011;62290;59.420;17.842;2023-07-20T11:23:27;1.70;;;0.85;;
14292;SDS011;62290;59.420;17.842;2023-07-20T11:25:58;1.15;;;0.77;;
14292;SDS011;62290;59.420;17.842;2023-07-20T11:28:29;0.77;;;0.65;;
14292;SDS011;62290;59.420;17.842;2023-07-20T11:30:58;0.75;;;0.57;;
14292;SDS011;62290;59.420;17.842;2023-07-20T11:33:26;2.20;;;0.80;;
14292;SDS011;62290;59.420;17.842;2023-07-20T11:35:54;0.90;;;0.50;;
14292;SDS011;62290;59.420;17.842;2023-07-20T11:38:23;0.98;;;0.77;;
14292;SDS011;62290;59.420;17.842;2023-07-20T11:40:53;0.90;;;0.70;;
14292;SDS011;62290;59.420;17.842;2023-07-20T11:43:21;1.77;;;0.57;;
14292;SDS011;62290;59.420;17.842;2023-07-20T11:45:52;0.82;;;0.75;;
14292;SDS011;62290;59.420;17.842;2023-07-20T11:48:20;1.20;;;0.75;;
14292;SDS011;62290;59.420;17.842;2023-07-20T11:50:48;0.98;;;0.60;;
14292;SDS011;62290;59.420;17.842;2023-07-20T11:53:16;1.02;;;0.50;;
14292;SDS011;62290;59.420;17.842;2023-07-20T11:55:45;1.20;;;0.70;;
14292;SDS011;62290;59.420;17.842;2023-07-20T11:58:15;0.98;;;0.70;;
14292;SDS011;62290;59.420;17.842;2023-07-20T12:00:43;0.60;;;0.50;;
14292;SDS011;62290;59.420;17.842;2023-07-20T12:03:12;0.68;;;0.50;;
14292;SDS011;62290;59.420;17.842;2023-07-20T12:05:40;0.90;;;0.60;;
14292;SDS011;62290;59.420;17.842;2023-07-20T12:08:26;0.57;;;0.50;;
14292;SDS011;62290;59.420;17.842;2023-07-20T12:10:55;1.02;;;0.60;;
14292;SDS011;62290;59.420;17.842;2023-07-20T12:13:26;1.10;;;0.60;;
14292;SDS011;62290;59.420;17.842;2023-07-20T12:16:07;0.82;;;0.57;;
14292;SDS011;62290;59.420;17.842;2023-07-20T12:18:37;0.75;;;0.40;;
14292;SDS011;62290;59.420;17.842;2023-07-20T12:21:06;1.15;;;0.50;;
14292;SDS011;62290;59.420;17.842;2023-07-20T12:23:35;1.08;;;0.60;;
14292;SDS011;62290;59.420;17.842;2023-07-20T12:26:06;0.60;;;0.55;;
14292;SDS011;62290;59.420;17.842;2023-07-20T12:28:39;0.95;;;0.50;;
14292;SDS011;62290;59.420;17.842;2023-07-20T12:31:08;0.70;;;0.63;;
14292;SDS011;62290;59.420;17.842;2023-07-20T12:33:37;0.95;;;0.60;;
14292;SDS011;62290;59.420;17.842;2023-07-20T12:36:05;0.65;;;0.60;;
14292;SDS011;62290;59.420;17.842;2023-07-20T12:38:33;2.33;;;0.60;;
14292;SDS011;62290;59.420;17.842;2023-07-20T12:41:02;0.68;;;0.40;;
14292;SDS011;62290;59.420;17.842;2023-07-20T12:43:31;1.10;;;0.60;;
14292;SDS011;62290;59.420;17.842;2023-07-20T12:46:01;0.70;;;0.43;;
14292;SDS011;62290;59.420;17.842;2023-07-20T12:48:29;1.02;;;0.47;;
14292;SDS011;62290;59.420;17.842;2023-07-20T12:50:57;0.95;;;0.70;;
14292;SDS011;62290;59.420;17.842;2023-07-20T12:53:25;0.93;;;0.45;;
14292;SDS011;62290;59.420;17.842;2023-07-20T12:55:53;0.70;;;0.60;;
14292;SDS011;62290;59.420;17.842;2023-07-20T12:58:22;1.25;;;0.80;;
14292;SDS011;62290;59.420;17.842;2023-07-20T13:00:50;1.83;;;0.60;;
14292;SDS011;62290;59.420;17.842;2023-07-20T13:03:19;1.20;;;0.60;;
14292;SDS011;62290;59.420;17.842;2023-07-20T13:05:51;2.00;;;0.60;;
14292;SDS011;62290;59.420;17.842;2023-07-20T13:08:22;0.93;;;0.60;;
14292;SDS011;62290;59.420;17.842;2023-07-20T13:10:52;1.00;;;0.50;;
14292;SDS011;62290;59.420;17.842;2023-07-20T13:13:20;0.50;;;0.50;;
14292;SDS011;62290;59.420;17.842;2023-07-20T13:15:48;0.80;;;0.57;;
14292;SDS011;62290;59.420;17.842;2023-07-20T13:18:16;0.85;;;0.63;;
14292;SDS011;62290;59.420;17.842;2023-07-20T13:20:46;0.98;;;0.63;;
14292;SDS011;62290;59.420;17.842;2023-07-20T13:23:14;1.52;;;0.70;;
14292;SDS011;62290;59.420;17.842;2023-07-20T13:25:42;1.00;;;0.50;;
14292;SDS011;62290;59.420;17.842;2023-07-20T13:28:10;0.75;;;0.75;;
14292;SDS011;62290;59.420;17.842;2023-07-20T13:30:39;0.77;;;0.65;;
14292;SDS011;62290;59.420;17.842;2023-07-20T13:33:07;1.30;;;0.60;;
14292;SDS011;62290;59.420;17.842;2023-07-20T13:35:39;1.85;;;0.90;;
14292;SDS011;62290;59.420;17.842;2023-07-20T13:38:12;1.05;;;0.52;;
14292;SDS011;62290;59.420;17.842;2023-07-20T13:40:40;1.15;;;0.50;;
14292;SDS011;62290;59.420;17.842;2023-07-20T13:43:09;0.93;;;0.45;;
14292;SDS011;62290;59.420;17.842;2023-07-20T13:45:38;1.27;;;0.68;;
14292;SDS011;62290;59.420;17.842;2023-07-20T13:48:06;0.88;;;0.60;;
14292;SDS011;62290;59.420;17.842;2023-07-20T13:50:34;0.88;;;0.70;;
14292;SDS011;62290;59.420;17.842;2023-07-20T13:53:05;0.95;;;0.60;;
14292;SDS011;62290;59.420;17.842;2023-07-20T13:55:38;1.40;;;0.50;;
14292;SDS011;62290;59.420;17.842;2023-07-20T13:58:09;1.10;;;0.50;;
14292;SDS011;62290;59.420;17.842;2023-07-20T14:00:39;1.05;;;0.50;;
14292;SDS011;62290;59.420;17.842;2023-07-20T14:03:07;0.77;;;0.60;;
14292;SDS011;62290;59.420;17.842;2023-07-20T14:05:38;0.70;;;0.60;;
14292;SDS011;62290;59.420;17.842;2023-07-20T14:08:09;1.20;;;0.65;;
14292;SDS011;62290;59.420;17.842;2023-07-20T14:10:39;0.80;;;0.60;;
14292;SDS011;62290;59.420;17.842;2023-07-20T14:13:10;0.68;;;0.68;;
14292;SDS011;62290;59.420;17.842;2023-07-20T14:15:38;1.10;;;0.73;;
14292;SDS011;62290;59.420;17.842;2023-07-20T14:18:06;0.63;;;0.45;;
14292;SDS011;62290;59.420;17.842;2023-07-20T14:20:34;0.63;;;0.60;;
14292;SDS011;62290;59.420;17.842;2023-07-20T14:23:04;0.73;;;0.52;;
14292;SDS011;62290;59.420;17.842;2023-07-20T14:25:33;1.13;;;0.45;;
14292;SDS011;62290;59.420;17.842;2023-07-20T14:28:05;1.10;;;0.70;;
14292;SDS011;62290;59.420;17.842;2023-07-20T14:30:33;0.80;;;0.60;;
14292;SDS011;62290;59.420;17.842;2023-07-20T14:33:01;0.55;;;0.47;;
14292;SDS011;62290;59.420;17.842;2023-07-20T14:35:29;0.40;;;0.40;;
14292;SDS011;62290;59.420;17.842;2023-07-20T14:37:57;1.13;;;0.52;;
14292;SDS011;62290;59.420;17.842;2023-07-20T14:40:25;0.70;;;0.50;;
14292;SDS011;62290;59.420;17.842;2023-07-20T14:42:54;0.70;;;0.40;;
14292;SDS011;62290;59.420;17.842;2023-07-20T14:45:24;1.05;;;0.60;;
14292;SDS011;62290;59.420;17.842;2023-07-20T14:47:52;2.08;;;0.57;;
14292;SDS011;62290;59.420;17.842;2023-07-20T14:50:21;0.60;;;0.55;;
14292;SDS011;62290;59.420;17.842;2023-07-20T14:52:49;1.85;;;0.80;;
14292;SDS011;62290;59.420;17.842;2023-07-20T14:55:17;1.17;;;0.82;;
14292;SDS011;62290;59.420;17.842;2023-07-20T14:57:46;1.25;;;0.60;;